createdAt,value
2022-11-07T00:02:05.956Z,5.15
2022-11-07T00:04:33.284Z,5.38
2022-11-07T00:07:00.960Z,6.28
2022-11-07T00:09:28.725Z,6.15
2022-11-07T00:11:55.450Z,6.38
2022-11-07T00:14:24.875Z,6.07
2022-11-07T00:16:51.681Z,6.78
2022-11-07T00:19:24.344Z,7.13
2022-11-07T00:21:51.200Z,6.82
2022-11-07T00:24:18.459Z,7.22
2022-11-07T00:26:46.773Z,6.90
2022-11-07T00:29:18.621Z,8.10
2022-11-07T00:31:46.586Z,7.40
2022-11-07T00:34:14.161Z,7.75
2022-11-07T00:36:41.898Z,7.80
2022-11-07T00:39:10.058Z,7.13
2022-11-07T00:41:37.118Z,7.20
2022-11-07T00:44:04.168Z,7.63
2022-11-07T00:46:33.247Z,8.55
2022-11-07T00:49:00.689Z,8.73
2022-11-07T00:51:32.223Z,9.43
2022-11-07T00:53:59.367Z,9.25
2022-11-07T00:56:26.506Z,9.07
2022-11-07T00:58:57.905Z,9.95
2022-11-07T01:01:30.272Z,10.77
2022-11-07T01:04:18.838Z,10.98
2022-11-07T01:06:49.381Z,11.38
2022-11-07T01:09:19.478Z,13.30
2022-11-07T01:11:47.340Z,12.95
2022-11-07T01:14:17.444Z,13.00
2022-11-07T01:16:51.117Z,12.63
2022-11-07T01:19:19.055Z,13.50
2022-11-07T01:21:47.713Z,13.60
2022-11-07T01:24:18.345Z,14.15
2022-11-07T01:26:51.954Z,14.63
2022-11-07T01:29:19.814Z,14.05
2022-11-07T01:31:47.376Z,13.85
2022-11-07T01:34:15.078Z,14.27
2022-11-07T01:36:41.998Z,13.88
2022-11-07T01:39:11.759Z,14.35
2022-11-07T01:41:39.092Z,14.95
2022-11-07T01:44:11.597Z,15.27
2022-11-07T01:46:41.408Z,14.95
2022-11-07T01:49:28.968Z,15.88
2022-11-07T01:52:10.849Z,14.80
2022-11-07T01:57:19.942Z,14.43
2022-11-07T01:59:48.092Z,15.20
2022-11-07T02:02:15.381Z,14.30
2022-11-07T02:04:42.526Z,15.15
2022-11-07T02:07:20.914Z,15.27
2022-11-07T02:09:48.270Z,16.55
2022-11-07T02:12:23.226Z,15.90
2022-11-07T02:14:53.117Z,15.27
2022-11-07T02:17:20.636Z,15.48
2022-11-07T02:19:56.203Z,15.35
2022-11-07T02:22:56.775Z,13.55
2022-11-07T02:25:28.289Z,15.10
2022-11-07T02:28:06.378Z,15.40
2022-11-07T02:30:37.137Z,14.82
2022-11-07T02:33:04.190Z,14.32
2022-11-07T02:35:44.546Z,13.43
2022-11-07T02:38:23.384Z,13.88
2022-11-07T02:40:55.645Z,15.32
2022-11-07T02:43:26.376Z,14.57
2022-11-07T02:45:58.344Z,13.32
2022-11-07T02:50:59.221Z,14.48
2022-11-07T02:53:29.051Z,13.13
2022-11-07T02:56:00.668Z,13.65
2022-11-07T02:58:30.670Z,13.07
2022-11-07T03:01:10.076Z,12.85
2022-11-07T03:03:48.613Z,12.25
2022-11-07T03:06:18.183Z,13.07
2022-11-07T03:08:44.890Z,11.23
2022-11-07T03:11:16.917Z,12.20
2022-11-07T03:13:46.257Z,11.43
2022-11-07T03:16:14.348Z,11.73
2022-11-07T03:18:43.434Z,11.73
2022-11-07T03:21:10.384Z,12.95
2022-11-07T03:23:37.427Z,13.20
2022-11-07T03:26:07.398Z,12.32
2022-11-07T03:28:34.388Z,12.30
2022-11-07T03:31:02.873Z,11.93
2022-11-07T03:33:35.202Z,12.02
2022-11-07T03:36:03.383Z,11.57
2022-11-07T03:38:30.062Z,12.23
2022-11-07T03:41:01.415Z,11.52
2022-11-07T03:43:28.089Z,11.27
2022-11-07T03:46:02.018Z,11.27
2022-11-07T03:48:28.734Z,10.57
2022-11-07T03:50:55.653Z,11.25
2022-11-07T03:53:25.499Z,10.07
2022-11-07T03:55:55.851Z,10.45
2022-11-07T03:58:23.583Z,10.65
2022-11-07T04:00:53.574Z,10.95
2022-11-07T04:03:20.288Z,9.85
2022-11-07T04:05:49.851Z,10.38
2022-11-07T04:08:16.671Z,10.02
2022-11-07T04:10:45.204Z,8.82
2022-11-07T04:13:42.403Z,10.02
2022-11-07T04:16:34.858Z,9.65
2022-11-07T04:19:02.360Z,9.43
2022-11-07T04:21:29.130Z,9.60
2022-11-07T04:23:55.878Z,9.13
2022-11-07T04:26:47.285Z,9.15
2022-11-07T04:29:16.989Z,9.43
2022-11-07T04:31:46.214Z,9.70
2022-11-07T04:34:14.895Z,9.40
2022-11-07T04:36:47.645Z,9.00
2022-11-07T04:39:14.239Z,8.40
2022-11-07T04:41:45.936Z,9.18
2022-11-07T04:44:14.370Z,8.45
2022-11-07T04:46:41.253Z,9.27
2022-11-07T04:49:15.591Z,8.57
2022-11-07T04:51:45.419Z,8.50
2022-11-07T04:54:16.149Z,8.63
2022-11-07T04:56:45.961Z,8.38
2022-11-07T04:59:18.336Z,9.15
2022-11-07T05:01:45.042Z,9.13
2022-11-07T05:04:11.746Z,8.27
2022-11-07T05:06:38.830Z,8.25
2022-11-07T05:09:07.532Z,8.15
2022-11-07T05:11:37.803Z,7.80
2022-11-07T05:14:05.153Z,8.57
2022-11-07T05:16:33.924Z,8.60
2022-11-07T05:19:00.638Z,8.52
2022-11-07T05:21:27.307Z,8.77
2022-11-07T05:23:55.940Z,9.13
2022-11-07T05:26:22.603Z,8.05
2022-11-07T05:28:51.847Z,8.43
2022-11-07T05:31:21.512Z,8.40
2022-11-07T05:33:48.296Z,8.10
2022-11-07T05:36:22.975Z,8.48
2022-11-07T05:38:52.523Z,11.48
2022-11-07T05:41:21.423Z,10.48
2022-11-07T05:43:48.720Z,8.57
2022-11-07T05:46:18.026Z,8.60
2022-11-07T05:48:44.732Z,8.85
2022-11-07T05:51:12.949Z,8.48
2022-11-07T05:53:39.796Z,9.45
2022-11-07T05:56:11.069Z,9.80
2022-11-07T05:58:39.329Z,8.88
2022-11-07T06:01:06.749Z,9.35
2022-11-07T06:03:39.002Z,9.70
2022-11-07T06:06:05.895Z,18.83
2022-11-07T06:08:33.055Z,11.13
2022-11-07T06:11:05.920Z,12.27
2022-11-07T06:13:35.608Z,11.40
2022-11-07T06:16:05.588Z,11.88
2022-11-07T06:18:35.560Z,12.90
2022-11-07T06:21:05.945Z,12.35
2022-11-07T06:23:36.529Z,12.13
2022-11-07T06:26:03.901Z,11.98
2022-11-07T06:28:34.548Z,11.15
2022-11-07T06:31:04.774Z,11.45
2022-11-07T06:33:33.061Z,11.45
2022-11-07T06:36:11.806Z,13.40
2022-11-07T06:38:41.531Z,13.45
2022-11-07T06:41:11.019Z,11.95
2022-11-07T06:43:38.588Z,11.65
2022-11-07T06:46:08.038Z,12.80
2022-11-07T06:48:34.691Z,12.65
2022-11-07T06:51:04.073Z,13.00
2022-11-07T06:53:31.077Z,13.25
2022-11-07T06:56:01.956Z,12.75
2022-11-07T06:58:30.152Z,12.93
2022-11-07T07:01:05.194Z,12.13
2022-11-07T07:03:36.637Z,12.48
2022-11-07T07:06:08.415Z,12.43
2022-11-07T07:08:40.281Z,11.93
2022-11-07T07:11:12.014Z,8.70
2022-11-07T07:13:46.719Z,9.07
2022-11-07T07:16:15.735Z,8.63
2022-11-07T07:18:43.295Z,9.82
2022-11-07T07:21:16.400Z,9.27
2022-11-07T07:23:43.723Z,10.35
2022-11-07T07:26:14.055Z,11.88
2022-11-07T07:28:41.409Z,12.73
2022-11-07T07:31:13.842Z,13.38
2022-11-07T07:33:44.681Z,12.10
2022-11-07T07:36:16.487Z,9.35
2022-11-07T07:38:48.857Z,8.93
2022-11-07T07:41:15.813Z,8.18
2022-11-07T07:43:42.641Z,9.20
2022-11-07T07:46:14.215Z,6.95
2022-11-07T07:48:41.137Z,7.40
2022-11-07T07:51:10.776Z,7.82
2022-11-07T07:53:44.393Z,8.80
2022-11-07T07:56:11.352Z,8.18
2022-11-07T07:58:38.219Z,7.72
2022-11-07T08:01:10.372Z,8.90
2022-11-07T08:04:00.137Z,9.68
2022-11-07T08:06:28.156Z,10.07
2022-11-07T08:08:57.506Z,8.65
2022-11-07T08:11:24.226Z,10.85
2022-11-07T08:13:51.451Z,12.43
2022-11-07T08:16:19.380Z,11.07
2022-11-07T08:18:49.285Z,17.40
2022-11-07T08:21:16.162Z,18.05
2022-11-07T08:23:42.864Z,17.08
2022-11-07T08:26:09.847Z,17.20
2022-11-07T08:28:41.653Z,16.08
2022-11-07T08:31:10.527Z,15.57
2022-11-07T08:33:37.385Z,13.88
2022-11-07T08:36:06.505Z,16.90
2022-11-07T08:38:35.745Z,16.35
2022-11-07T08:41:08.880Z,17.15
2022-11-07T08:43:36.377Z,18.65
2022-11-07T08:46:05.740Z,20.10
2022-11-07T08:48:35.396Z,21.42
2022-11-07T08:51:03.460Z,19.95
2022-11-07T08:53:30.769Z,20.70
2022-11-07T08:56:08.474Z,23.92
2022-11-07T08:58:36.866Z,22.88
2022-11-07T09:01:08.353Z,22.90
2022-11-07T09:03:47.355Z,21.95
2022-11-07T09:06:18.011Z,20.48
2022-11-07T09:08:48.664Z,21.10
2022-11-07T09:11:18.998Z,22.13
2022-11-07T09:13:51.319Z,21.17
2022-11-07T09:16:18.118Z,21.25
2022-11-07T09:18:50.734Z,22.05
2022-11-07T09:21:22.685Z,24.85
2022-11-07T09:23:50.705Z,25.40
2022-11-07T09:26:17.449Z,25.45
2022-11-07T09:28:48.417Z,26.17
2022-11-07T09:31:18.348Z,27.02
2022-11-07T09:33:44.921Z,25.70
2022-11-07T09:36:13.194Z,29.45
2022-11-07T09:38:39.919Z,27.52
2022-11-07T09:41:16.314Z,30.30
2022-11-07T09:43:49.164Z,33.42
2022-11-07T09:46:34.646Z,28.63
2022-11-07T09:49:20.656Z,31.02
2022-11-07T09:52:20.010Z,32.97
2022-11-07T09:55:01.978Z,30.92
2022-11-07T10:00:03.436Z,32.55
2022-11-07T10:02:38.130Z,31.88
2022-11-07T10:05:05.846Z,32.92
2022-11-07T10:07:47.519Z,33.70
2022-11-07T10:10:39.318Z,33.58
2022-11-07T10:13:15.304Z,32.20
2022-11-07T10:16:04.727Z,31.40
2022-11-07T10:18:53.510Z,33.78
2022-11-07T10:21:58.031Z,36.55
2022-11-07T10:24:36.855Z,36.08
2022-11-07T10:27:11.405Z,36.80
2022-11-07T10:29:47.109Z,39.28
2022-11-07T10:32:35.407Z,37.88
2022-11-07T10:35:06.561Z,33.45
2022-11-07T10:37:36.464Z,36.20
2022-11-07T10:40:13.882Z,37.33
2022-11-07T10:42:53.960Z,39.58
2022-11-07T10:45:22.799Z,38.08
2022-11-07T10:48:04.019Z,37.20
2022-11-07T10:50:31.729Z,38.67
2022-11-07T10:53:07.600Z,37.90
2022-11-07T10:55:44.006Z,36.20
2022-11-07T10:58:28.757Z,36.53
2022-11-07T11:01:10.791Z,36.00
2022-11-07T11:04:05.505Z,36.78
2022-11-07T11:06:35.319Z,37.35
2022-11-07T11:09:15.118Z,36.42
2022-11-07T11:11:45.965Z,34.95
2022-11-07T11:14:14.736Z,37.40
2022-11-07T11:16:45.214Z,36.60
2022-11-07T11:19:30.244Z,34.97
2022-11-07T11:22:00.087Z,34.80
2022-11-07T11:24:29.818Z,32.03
2022-11-07T11:27:03.256Z,33.33
2022-11-07T11:29:39.546Z,32.30
2022-11-07T11:32:26.374Z,31.85
2022-11-07T11:35:16.338Z,29.10
2022-11-07T11:37:53.872Z,30.67
2022-11-07T11:40:27.293Z,31.48
2022-11-07T11:43:04.893Z,33.00
2022-11-07T11:45:40.883Z,31.63
2022-11-07T11:48:18.192Z,28.33
2022-11-07T11:50:51.968Z,27.92
2022-11-07T11:53:21.312Z,27.63
2022-11-07T11:56:02.055Z,27.70
2022-11-07T11:59:00.580Z,29.65
2022-11-07T12:01:47.480Z,31.80
2022-11-07T12:04:37.567Z,30.30
2022-11-07T12:07:30.665Z,30.02
2022-11-07T12:10:05.639Z,30.63
2022-11-07T12:12:38.114Z,35.17
2022-11-07T12:15:24.135Z,34.72
2022-11-07T12:18:14.653Z,35.17
2022-11-07T12:21:35.521Z,34.67
2022-11-07T12:24:11.243Z,35.08
2022-11-07T12:26:57.898Z,34.42
2022-11-07T12:29:58.152Z,35.25
2022-11-07T12:32:43.843Z,35.70
2022-11-07T12:35:32.018Z,38.38
2022-11-07T12:38:13.417Z,32.50
2022-11-07T12:41:13.169Z,35.67
2022-11-07T12:44:04.955Z,35.85
2022-11-07T12:46:51.092Z,35.90
2022-11-07T12:49:26.972Z,38.38
2022-11-07T12:52:09.677Z,38.60
2022-11-07T12:55:04.674Z,35.40
2022-11-07T12:57:38.440Z,36.30
2022-11-07T13:00:17.699Z,35.80
2022-11-07T13:03:06.562Z,32.95
2022-11-07T13:05:36.238Z,33.03
2022-11-07T13:08:21.525Z,34.03
2022-11-07T13:11:06.374Z,29.60
2022-11-07T13:14:17.207Z,30.98
2022-11-07T13:17:05.573Z,29.63
2022-11-07T13:19:37.360Z,30.48
2022-11-07T13:25:23.906Z,31.83
2022-11-07T13:27:53.750Z,29.10
2022-11-07T13:30:30.615Z,28.80
2022-11-07T13:32:58.979Z,31.55
2022-11-07T13:35:27.548Z,33.80
2022-11-07T13:38:09.057Z,33.25
2022-11-07T13:40:40.471Z,32.50
2022-11-07T13:43:29.634Z,27.27
2022-11-07T13:46:03.319Z,25.92
2022-11-07T13:48:57.699Z,24.20
2022-11-07T13:51:48.716Z,27.95
2022-11-07T13:54:28.389Z,26.55
2022-11-07T13:57:07.661Z,27.17
2022-11-07T14:00:05.587Z,24.65
2022-11-07T14:02:35.731Z,23.40
2022-11-07T14:05:16.966Z,24.27
2022-11-07T14:10:47.236Z,22.95
2022-11-07T14:13:22.483Z,23.60
2022-11-07T14:15:54.100Z,23.83
2022-11-07T14:18:23.141Z,21.27
2022-11-07T14:20:56.690Z,21.85
2022-11-07T14:23:30.047Z,24.58
2022-11-07T14:26:00.910Z,24.98
2022-11-07T14:28:41.355Z,26.02
2022-11-07T14:31:25.125Z,25.50
2022-11-07T14:34:01.915Z,24.95
2022-11-07T14:36:33.423Z,24.10
2022-11-07T14:39:18.330Z,24.23
2022-11-07T14:41:47.828Z,22.52
2022-11-07T14:44:36.240Z,24.40
2022-11-07T14:47:17.784Z,23.65
2022-11-07T14:49:48.869Z,22.92
2022-11-07T14:52:46.079Z,22.85
2022-11-07T14:55:47.268Z,23.67
2022-11-07T14:58:16.845Z,23.63
2022-11-07T15:01:46.286Z,25.13
2022-11-07T15:04:28.699Z,25.70
2022-11-07T15:06:57.542Z,25.65
2022-11-07T15:09:37.074Z,25.45
2022-11-07T15:12:16.348Z,24.73
2022-11-07T15:14:47.999Z,26.98
2022-11-07T15:17:26.635Z,25.75
2022-11-07T15:20:04.630Z,26.60
2022-11-07T15:22:37.375Z,24.13
2022-11-07T15:25:24.192Z,24.13
2022-11-07T15:28:02.840Z,26.48
2022-11-07T15:30:35.461Z,26.15
2022-11-07T15:33:02.156Z,25.20
2022-11-07T15:35:44.014Z,25.35
2022-11-07T15:38:39.448Z,25.13
2022-11-07T15:41:09.347Z,26.65
2022-11-07T15:43:36.233Z,25.77
2022-11-07T15:46:12.348Z,25.73
2022-11-07T15:48:41.490Z,25.08
2022-11-07T15:51:09.249Z,25.83
2022-11-07T15:53:36.025Z,25.83
2022-11-07T15:56:13.912Z,25.48
2022-11-07T15:58:40.985Z,26.42
2022-11-07T16:01:13.776Z,26.55
2022-11-07T16:03:41.293Z,26.52
2022-11-07T16:06:33.136Z,37.83
2022-11-07T16:09:00.160Z,35.80
2022-11-07T16:11:27.754Z,28.48
2022-11-07T16:14:14.672Z,27.08
2022-11-07T16:16:44.016Z,25.55
2022-11-07T16:19:18.885Z,25.27
2022-11-07T16:21:48.186Z,27.33
2022-11-07T16:24:19.733Z,25.05
2022-11-07T16:26:49.547Z,24.67
2022-11-07T16:29:16.339Z,29.15
2022-11-07T16:31:44.501Z,29.73
2022-11-07T16:34:12.216Z,28.77
2022-11-07T16:36:40.043Z,29.05
2022-11-07T16:39:11.557Z,30.00
2022-11-07T16:41:38.421Z,33.60
2022-11-07T16:44:05.369Z,31.35
2022-11-07T16:46:42.061Z,29.98
2022-11-07T16:49:41.901Z,28.48
2022-11-07T16:52:16.327Z,29.00
2022-11-07T16:54:45.750Z,29.92
2022-11-07T16:57:22.842Z,28.88
2022-11-07T16:59:52.799Z,26.73
2022-11-07T17:02:25.713Z,26.20
2022-11-07T17:04:54.338Z,27.20
2022-11-07T17:07:23.907Z,27.17
2022-11-07T17:09:54.023Z,26.90
2022-11-07T17:12:25.189Z,25.75
2022-11-07T17:14:58.184Z,24.52
2022-11-07T17:17:32.533Z,25.30
2022-11-07T17:19:59.444Z,24.63
2022-11-07T17:22:29.119Z,23.33
2022-11-07T17:24:55.802Z,24.33
2022-11-07T17:27:27.359Z,25.67
2022-11-07T17:29:55.819Z,25.33
2022-11-07T17:32:26.684Z,24.65
2022-11-07T17:35:30.718Z,23.23
2022-11-07T17:37:53.551Z,23.88
2022-11-07T17:40:30.209Z,22.10
2022-11-07T17:43:00.647Z,23.63
2022-11-07T17:45:28.090Z,23.83
2022-11-07T17:47:55.161Z,23.70
2022-11-07T17:50:25.182Z,23.30
2022-11-07T17:53:06.107Z,23.17
2022-11-07T17:55:36.433Z,22.85
2022-11-07T17:58:04.381Z,23.77
2022-11-07T18:00:33.126Z,22.33
2022-11-07T18:03:00.022Z,24.70
2022-11-07T18:05:32.896Z,23.15
2022-11-07T18:08:01.182Z,22.95
2022-11-07T18:10:27.895Z,22.40
2022-11-07T18:12:58.941Z,21.52
2022-11-07T18:15:28.790Z,22.90
2022-11-07T18:17:55.837Z,22.23
2022-11-07T18:20:25.330Z,23.05
2022-11-07T18:22:52.045Z,23.33
2022-11-07T18:25:24.703Z,24.42
2022-11-07T18:27:53.044Z,21.85
2022-11-07T18:30:20.147Z,23.50
2022-11-07T18:32:47.264Z,24.48
2022-11-07T18:35:14.210Z,24.30
2022-11-07T18:37:43.704Z,23.02
2022-11-07T18:40:17.801Z,21.95
2022-11-07T18:42:47.548Z,24.48
2022-11-07T18:45:14.254Z,24.42
2022-11-07T18:47:41.543Z,24.27
2022-11-07T18:50:08.609Z,24.88
2022-11-07T18:52:35.408Z,24.05
2022-11-07T18:55:02.558Z,25.10
2022-11-07T18:57:32.730Z,23.90
2022-11-07T19:00:00.467Z,23.60
2022-11-07T19:02:31.378Z,24.35
2022-11-07T19:05:01.157Z,23.70
2022-11-07T19:07:33.030Z,22.05
2022-11-07T19:12:30.064Z,23.15
2022-11-07T19:14:59.122Z,22.55
2022-11-07T19:17:26.901Z,24.08
2022-11-07T19:19:54.116Z,23.25
2022-11-07T19:22:21.019Z,23.48
2022-11-07T19:24:48.120Z,25.42
2022-11-07T19:27:15.156Z,23.98
2022-11-07T19:29:42.807Z,23.92
2022-11-07T19:32:09.549Z,25.35
2022-11-07T19:34:36.414Z,24.65
2022-11-07T19:37:03.163Z,26.15
2022-11-07T19:39:34.145Z,24.02
2022-11-07T19:42:01.208Z,25.07
2022-11-07T19:44:39.814Z,24.48
2022-11-07T19:47:08.630Z,25.30
2022-11-07T19:49:35.231Z,26.58
2022-11-07T19:52:01.911Z,26.70
2022-11-07T19:54:28.862Z,24.45
2022-11-07T19:56:57.648Z,27.60
2022-11-07T19:59:24.911Z,27.83
2022-11-07T20:02:17.809Z,27.13
2022-11-07T20:04:40.996Z,27.58
2022-11-07T20:07:09.013Z,27.88
2022-11-07T20:09:47.376Z,28.58
2022-11-07T20:12:17.798Z,28.35
2022-11-07T20:14:50.664Z,30.75
2022-11-07T20:17:19.557Z,28.67
2022-11-07T20:19:46.678Z,26.83
2022-11-07T20:22:13.689Z,28.73
2022-11-07T20:24:40.487Z,28.40
2022-11-07T20:27:10.204Z,28.95
2022-11-07T20:29:39.459Z,27.60
2022-11-07T20:32:06.265Z,28.35
2022-11-07T20:34:33.107Z,29.73
2022-11-07T20:36:59.926Z,29.27
2022-11-07T20:39:30.171Z,29.45
2022-11-07T20:41:57.362Z,27.98
2022-11-07T20:44:26.224Z,29.23
2022-11-07T20:46:53.114Z,30.83
2022-11-07T20:49:30.457Z,31.23
2022-11-07T20:51:58.440Z,28.52
2022-11-07T20:54:29.536Z,28.40
2022-11-07T20:57:01.509Z,30.25
2022-11-07T20:59:29.270Z,31.23
2022-11-07T21:02:03.664Z,29.02
2022-11-07T21:04:44.614Z,30.63
2022-11-07T21:07:23.289Z,30.58
2022-11-07T21:09:53.671Z,29.73
2022-11-07T21:12:20.525Z,30.25
2022-11-07T21:14:50.709Z,30.73
2022-11-07T21:17:27.259Z,30.83
2022-11-07T21:19:54.215Z,29.42
2022-11-07T21:22:29.563Z,29.27
2022-11-07T21:24:56.998Z,27.92
2022-11-07T21:27:23.883Z,28.35
2022-11-07T21:29:52.600Z,27.55
2022-11-07T21:32:22.794Z,26.30
2022-11-07T21:34:49.577Z,27.10
2022-11-07T21:37:18.318Z,26.65
2022-11-07T21:39:45.117Z,27.00
2022-11-07T21:42:12.863Z,26.98
2022-11-07T21:44:47.736Z,26.10
2022-11-07T21:47:14.732Z,25.23
2022-11-07T21:49:41.387Z,23.90
2022-11-07T21:52:12.612Z,24.98
2022-11-07T21:54:45.107Z,25.13
2022-11-07T21:57:13.979Z,24.65
2022-11-07T21:59:49.769Z,24.50
2022-11-07T22:02:16.755Z,24.10
2022-11-07T22:04:43.622Z,22.35
2022-11-07T22:07:19.239Z,23.15
2022-11-07T22:09:46.145Z,21.98
2022-11-07T22:12:12.956Z,20.83
2022-11-07T22:14:39.737Z,21.10
2022-11-07T22:17:06.896Z,21.77
2022-11-07T22:19:33.689Z,21.73
2022-11-07T22:22:00.738Z,21.70
2022-11-07T22:24:27.582Z,20.42
2022-11-07T22:26:55.890Z,21.58
2022-11-07T22:29:23.123Z,20.63
2022-11-07T22:31:49.886Z,22.02
2022-11-07T22:34:22.271Z,21.17
2022-11-07T22:36:49.387Z,21.05
2022-11-07T22:39:17.708Z,21.33
2022-11-07T22:41:46.504Z,21.88
2022-11-07T22:44:16.281Z,21.30
2022-11-07T22:46:42.987Z,21.63
2022-11-07T22:49:12.834Z,22.15
2022-11-07T22:51:43.491Z,22.92
2022-11-07T22:54:16.614Z,20.60
2022-11-07T22:56:43.474Z,22.67
2022-11-07T22:59:18.549Z,20.27
2022-11-07T23:01:45.265Z,21.15
2022-11-07T23:04:15.830Z,21.27
2022-11-07T23:06:42.608Z,22.42
2022-11-07T23:09:13.540Z,22.75
2022-11-07T23:11:45.875Z,21.37
2022-11-07T23:14:20.691Z,20.65
2022-11-07T23:16:49.753Z,22.88
2022-11-07T23:19:18.578Z,21.83
2022-11-07T23:21:45.175Z,22.00
2022-11-07T23:24:19.529Z,20.92
2022-11-07T23:26:46.473Z,21.58
2022-11-07T23:29:16.995Z,20.65
2022-11-07T23:31:46.923Z,20.67
2022-11-07T23:34:17.236Z,21.20
2022-11-07T23:36:46.255Z,20.52
2022-11-07T23:39:42.436Z,21.17
2022-11-07T23:42:10.233Z,21.67
2022-11-07T23:44:59.000Z,21.67
2022-11-07T23:47:46.231Z,21.48
2022-11-07T23:50:31.548Z,19.40
2022-11-07T23:52:58.207Z,21.65
2022-11-07T23:55:39.857Z,19.70
2022-11-07T23:58:30.887Z,20.08
